メインページ
METAR-TAF:

METAR-TAF

空港 :

アテネ, ギリシャ

アテネ国際空港

緯度: 37-56N, 経度: 023-56E, 海抜: 94m

現時点の気象観測

当レポートは34分前の01:20(UTC)に作成
西の風 33kt、最大56ktの突風を伴う
気温 15°C
湿度 36%
気圧 996 hPa
視程10km以上
高度4000ftの雲は散在している

METAR: LGAV 180120Z 28033G56KT 9999 SCT040 15/00 Q0996 NOSIG

時間: 03:54 (01:54 UTC)

予報

当レポートは2時間54分前の23:00(UTC)に作成
予報は18日の 00時(UTC)から 18日の 24時(UTC)まで有効
南/南西の風 15kt
視程10km以上
高度4000ftの雲はほとんどない
高度7000ftの雲は散在している
18日の 00時(UTC)から 18日の 02時(UTC)まで徐々に
西の風 20kt
18日の 00時(UTC)から 18日の 04時(UTC)まで一時的に
西の風 18kt、最大28ktの突風を伴う
確率 30% :
18日の 03時(UTC)から 18日の 12時(UTC)まで一時的に
視程: 5000m
高度1500ftの雲は散在している
高度2000ftの千切れ雲あり
18日の 04時(UTC)から 18日の 06時(UTC)まで徐々に
北西の風 22kt、最大34ktの突風を伴う
18日の 19時(UTC)から 18日の 21時(UTC)まで徐々に
西/北西の風 12kt、最大22ktの突風を伴う

TAF: LGAV 172300Z 1800/1824 20015KT 9999 FEW040 SCT070 BECMG 1800/1802 26020KT TEMPO 1800/1804 27018G28KT PROB30 TEMPO 1803/1812 5000 RA SCT015 BKN020 BECMG 1804/1806 31022G34KT BECMG 1819/1821 30012G22KT

4,000以上の空港の気象観測と天気予報(METAR報とTAF報)

利用可能な観測所は地図上に黄色い丸と赤い丸で示す。

丸の上にカーソルを重ねると観測所名を参照できる。

次にクリックすると気象観測と天気予報を参照できる。

マップの切り替え:黒色「×」印の緑ボタンをクリックして拡大、「-」印の緑ボタンをクリックして縮小、緑色の三角印をクリックして隣りの地図に切り替え


METAR-TAF: